Hlavní strana
METAR-TAF:

METAR-TAF

Letiště :

Rock Hill/York County Airport (Bryant Field)

Rock Hill, Jižní Karolína, Spojené státy americké

zeměpisná šířka: 34-59-02N, zeměpisná délka: 081-03-21W, výška: 204 m

Aktuální stav počasí

Zpráva byla vytvořena před 12 minutami, v 11:54 UTC
Jihozápadní vítr 7 kt
Teplota 22°C
Vlhkost vzduchu 83%
Tlak 1021 hPa
Viditelnost: 12.9 km
Jasno

METAR: KUZA 241154Z AUTO 23007KT 8SM CLR 22/19 A3016 RMK AO2 SLP198 T02220194 10222 20194 53015

Čas: 08:06 (12:06 UTC)


TAF: chybějící

Stav a předpovědi počasí z více než 4 000 letišť (zprávy METAR a TAF).

Červené a žluté tečky na mapě představují dostupné meteorologické stanice.

Když kurzor umístíte na tečku, zobrazí se název stanice.

Pak kliknutím zobrazíte stav a předpověď počasí.

Chcete-li změnit mapu, kliknutím na zelené tlačítko se znaménkem +mapu přiblížíte, kliknutím na zelené tlačítko se znaménkem – mapu oddálíte a kliknutím na zelené šipky přejdete na sousední mapy.


METAR-TAF: